x

Caribbean Valley - 76 Nm Ssw Of Plymouth, Montserrat (42060) Wave Buoy

6:50pm - Tue 30th Sep 2014 All times are AST. -4 hours from GMT.

  • Sig Wave height 2.0ft
  • Swell Direction
  • Peak Period 5s
  • Average Period 4s
  • Wind
    9mph
  • Sea Temp 85°f
  • Air Temp 84°f
  • Sea Pressure 1014.1mb
  • Caribbean Valley - 76 Nm Ssw Of Plymouth, Montserrat
  • Caribbean Valley - 76 Nm Ssw Of Plymouth, Montserrat

More Historic Weather Station data

Upgrade to MSW Pro to gain access to the past 30 days of data for over 8000 Wavebouys and Weather Stations around the globe.

Join Pro

Comparision Forecast

View Surf forecast
   
Tue 09/30 6:50pm 2ft 5s 4s 9
mph
1014.1mb 85f 84f
5:50pm 2ft 4s 4s 9 11 mph 1013.6mb 85f 84f
4:50pm 2ft 5s 4s 9 11 mph 1013.4mb 85f 84f
3:50pm 2.5ft 5s 4s 11 13 mph 1013.3mb 85f 84f
2:50pm 2ft 4s 4s 11 13 mph 1013.3mb 85f 84f
1:50pm 2.5ft 4s 4s 9 13 mph 1013.8mb 85f 84f
12:50pm 2.5ft 4s 4s 11 13 mph 1014.5mb 85f 84f
11:50am 2.5ft 4s 4s 13 16 mph 1015.2mb 85f 84f
10:50am 2ft 4s 4s 13 16 mph 1015.8mb 85f 84f
9:50am 2ft 4s 4s 11 13 mph 1015.8mb 85f 84f
8:50am 2ft 5s 4s 9 11 mph 1015.6mb 84f 84f
7:50am 2ft 4s 4s 9 11 mph 1015mb 84f 83f
6:50am 2.5ft 4s 4s 9
mph
1014.5mb 84f 83f
5:50am 2ft 4s 4s 11 13 mph 1013.7mb 84f 83f
4:50am 2ft 4s 4s 11 13 mph 1013.1mb 84f 83f
3:50am 2.5ft 4s 4s 9 13 mph 1012.9mb 84f 83f
2:50am 1.6ft 9s 4s 11 13 mph 1013mb 84f 83f
1:50am 1.6ft 8s 4s 9 11 mph 1013.6mb 85f 83f
12:50am 1.6ft 8s 5s 7 9 mph 1014.4mb 85f 83f
Mon 09/29 11:50pm 2ft 9s 5s 9
mph
1014.7mb 85f 83f
10:50pm 1.6ft 9s 5s 7 9 mph 1015.2mb 85f 83f
9:50pm 1.6ft 8s 5s 9
mph
1015.5mb 85f 83f
8:50pm 1.6ft 8s 5s 7 9 mph 1015.3mb 85f 83f
7:50pm 2ft 9s 5s 7 9 mph 1014.8mb 85f 83f
6:50pm 2ft 9s 5s 9 11 mph 1014.2mb 85f 83f
5:50pm 2ft 8s 5s 7 9 mph 1013.8mb 85f 83f
4:50pm 2ft 8s 5s 7 9 mph 1013.6mb 85f 84f
3:50pm 2ft 8s 5s 7 9 mph 1013.3mb 85f 84f
2:50pm 2ft 5s 4s 7 9 mph 1013.3mb 85f 84f
1:50pm 2ft 8s 5s 9 11 mph 1013.7mb 85f 83f
12:50pm 2.5ft 9s 5s 9 11 mph 1014.2mb 85f 83f
11:50am 2.5ft 9s 5s 9 13 mph 1014.8mb 85f 83f
10:50am 2.5ft 6s 5s 9 11 mph 1015.3mb 85f 83f
9:50am 2.5ft 6s 5s 9 11 mph 1015.4mb 84f 83f
8:50am 2.5ft 6s 5s 9 13 mph 1014.9mb 84f 83f
7:50am 2.5ft 6s 6s 9 11 mph 1014.7mb 84f 82f
6:50am 2.5ft 9s 6s 7
mph
1014.1mb 84f 82f
5:50am 2.5ft 9s 6s 2 4 mph 1013.7mb 84f 82f
3:50am 2.5ft 6s 5s 2 4 mph 1012.8mb 84f 82f
2:50am 2.5ft 7s 5s 4 7 mph 1013.1mb 84f 82f
1:50am 2.5ft 6s 5s 7
mph
1013.9mb 84f 82f
12:50am 2.5ft 7s 5s 7 9 mph 1014.4mb 84f 83f
Sun 09/28 11:50pm 2.5ft 5s 5s 9 11 mph 1014.7mb 84f 83f
10:50pm 2.5ft 6s 5s 9 11 mph 1015.1mb 84f 83f
9:50pm 2.5ft 6s 5s 9 11 mph 1015.1mb 84f 83f
8:50pm 2.5ft 6s 5s 9
mph
1014.9mb 84f 83f
7:50pm 2.5ft 6s 5s 7 9 mph 1014.2mb 85f 83f
6:50pm 2.5ft 8s 5s 7 9 mph 1013.7mb 85f 83f
5:50pm 2.5ft 6s 5s 7 9 mph 1013.4mb 85f 83f
4:50pm 2.5ft 6s 5s 7 9 mph 1013.1mb 85f 83f
3:50pm 2.5ft 6s 5s 7 9 mph 1012.9mb 85f 83f
2:50pm 2.5ft 6s 5s 9
mph
1013.2mb 85f 83f
1:50pm 3ft 6s 5s 7 9 mph 1013.5mb 85f 83f
12:50pm 3ft 6s 5s 9 11 mph 1014.2mb 85f 83f
11:50am 3ft 6s 5s 11 13 mph 1014.8mb 84f 83f
10:50am 3ft 5s 5s 11 13 mph 1015.5mb 84f 83f
9:50am 3ft 6s 5s 11 16 mph 1015.4mb 84f 83f
8:50am 3ft 6s 5s 11
mph
1015.1mb 84f 83f
7:50am 3ft 6s 5s 9 11 mph 1014.4mb 84f 83f
6:50am 3ft 6s 5s 11 13 mph 1013.5mb 84f 83f
5:50am 2.5ft 6s 5s 11 13 mph 1013mb 84f 82f
4:50am 2.5ft 5s 4s 11 13 mph 1012.3mb 84f 82f
3:50am 3ft 6s 4s 13 16 mph 1011.7mb 84f 83f
2:50am 2.5ft 6s 4s 13 16 mph 1012mb 84f 83f
1:50am 2.5ft 6s 4s 13 16 mph 1012.3mb 84f 83f
12:50am 2.5ft 5s 4s 13 16 mph 1012.7mb 84f 83f
Sat 09/27 11:50pm 2.5ft 5s 4s 16 18 mph 1013.4mb 84f 83f
10:50pm 3ft 5s 5s 13 16 mph 1013.9mb 84f 83f
9:50pm 2.5ft 5s 5s 13 16 mph 1014.2mb 84f 83f
8:50pm 2.5ft 5s 4s 13 16 mph 1013.9mb 84f 83f
7:50pm 3ft 5s 5s 13 16 mph 1013.4mb 84f 83f
6:50pm 2.5ft 5s 5s 13
mph
1013mb 84f 83f
5:50pm 2.5ft 5s 4s 13 16 mph 1012.7mb 84f 83f
4:50pm 2.5ft 5s 4s 13
mph
1012.5mb 84f 84f
3:50pm 2.5ft 8s 4s 13 16 mph 1012.5mb 84f 84f
2:50pm 2ft 8s 5s 13 16 mph 1012.4mb 84f 84f
1:50pm 2ft 11s 5s 4
mph
1012.9mb 85f 83f
12:50pm 2ft 5s 5s 7 9 mph 1013.7mb 84f 80f
11:50am 2.5ft 10s 5s 7 9 mph 1014.3mb 84f 83f
10:50am 2.5ft 4s 5s 9 11 mph 1014.4mb 84f 83f
9:50am 2.5ft 4s 5s 9 11 mph 1014.6mb 84f 83f
8:50am 2.5ft 4s 4s 9 11 mph 1014mb 84f 83f
7:50am 2.5ft 4s 5s 9 11 mph 1013.2mb 84f 82f
6:50am 2.5ft 4s 5s 9 11 mph 1012.6mb 84f 82f
5:50am 2.5ft 5s 4s 9 11 mph 1011.8mb 84f 82f
4:50am 2.5ft 5s 5s 11 13 mph 1011mb 84f 82f
3:50am 2.5ft 4s 5s 11 16 mph 1010.8mb 84f 82f
2:50am 2.5ft 4s 4s 9 11 mph 1010.9mb 84f 82f
1:50am 2.5ft 7s 4s 11 13 mph 1011.7mb 84f 81f
12:50am 2.5ft 8s 4s 9 11 mph 1012.3mb 84f 81f
Fri 09/26 11:50pm 2.5ft 4s 4s 13 16 mph 1012.4mb 84f 82f